createdAt,value
2019-01-02T00:01:01.497Z,11.97
2019-01-02T00:03:41.626Z,14.30
2019-01-02T00:06:21.866Z,14.93
2019-01-02T00:09:01.846Z,13.90
2019-01-02T00:11:41.926Z,13.77
2019-01-02T00:14:22.174Z,13.77
2019-01-02T00:17:02.082Z,13.00
2019-01-02T00:19:41.873Z,12.23
2019-01-02T00:22:21.858Z,13.07
2019-01-02T00:25:02.277Z,12.93
2019-01-02T00:27:42.829Z,13.00
2019-01-02T00:30:23.144Z,14.00
2019-01-02T00:33:03.685Z,14.83
2019-01-02T00:35:43.575Z,13.50
2019-01-02T00:38:23.446Z,13.47
2019-01-02T00:41:03.712Z,12.07
2019-01-02T00:43:43.844Z,13.40
2019-01-02T00:46:24.070Z,13.67
2019-01-02T00:49:04.011Z,12.53
2019-01-02T00:51:44.181Z,12.87
2019-01-02T00:54:24.082Z,14.20
2019-01-02T00:57:04.133Z,13.70
2019-01-02T00:59:43.989Z,13.17
2019-01-02T01:02:24.233Z,14.27
2019-01-02T01:05:04.328Z,14.07
2019-01-02T01:07:44.668Z,13.67
2019-01-02T01:10:24.528Z,12.67
2019-01-02T01:13:04.481Z,12.40
2019-01-02T01:15:44.494Z,14.03
2019-01-02T01:18:24.508Z,12.97
2019-01-02T01:21:04.501Z,12.77
2019-01-02T01:23:44.571Z,12.73
2019-01-02T01:26:24.480Z,12.83
2019-01-02T01:29:04.625Z,13.00
2019-01-02T01:31:44.677Z,13.10
2019-01-02T01:34:24.517Z,12.93
2019-01-02T01:37:04.589Z,15.67
2019-01-02T01:39:44.940Z,12.73
2019-01-02T01:42:24.797Z,14.57
2019-01-02T01:45:04.855Z,14.37
2019-01-02T01:47:44.896Z,14.47
2019-01-02T01:50:25.089Z,12.63
2019-01-02T01:53:05.067Z,13.47
2019-01-02T01:55:45.241Z,13.70
2019-01-02T01:58:25.359Z,13.30
2019-01-02T02:01:05.555Z,15.33
2019-01-02T02:03:45.505Z,14.33
2019-01-02T02:06:24.763Z,14.47
2019-01-02T02:09:04.874Z,12.00
2019-01-02T02:11:45.170Z,12.87
2019-01-02T02:14:25.164Z,12.80
2019-01-02T02:17:05.316Z,17.13
2019-01-02T02:19:45.465Z,14.17
2019-01-02T02:22:25.389Z,13.33
2019-01-02T02:25:04.266Z,13.20
2019-01-02T02:27:50.690Z,15.27
2019-01-02T02:30:52.305Z,13.67
2019-01-02T02:33:32.489Z,13.90
2019-01-02T02:36:12.736Z,14.47
2019-01-02T02:38:52.861Z,14.13
2019-01-02T02:41:33.195Z,13.33
2019-01-02T02:44:13.393Z,12.50
2019-01-02T02:46:53.511Z,14.33
2019-01-02T02:49:33.551Z,13.07
2019-01-02T02:52:12.776Z,16.23
2019-01-02T02:54:52.832Z,14.70
2019-01-02T02:57:32.755Z,13.40
2019-01-02T03:00:12.833Z,13.10
2019-01-02T03:02:52.903Z,14.20
2019-01-02T03:05:32.988Z,13.20
2019-01-02T03:08:13.015Z,13.87
2019-01-02T03:10:53.223Z,12.53
2019-01-02T03:13:33.501Z,13.07
2019-01-02T03:16:14.093Z,14.63
2019-01-02T03:18:53.973Z,13.40
2019-01-02T03:21:33.899Z,14.27
2019-01-02T03:24:13.963Z,14.13
2019-01-02T03:26:54.432Z,14.03
2019-01-02T03:29:34.386Z,12.63
2019-01-02T03:32:14.619Z,12.13
2019-01-02T03:34:54.841Z,12.60
2019-01-02T03:37:34.929Z,13.10
2019-01-02T03:40:14.972Z,11.23
2019-01-02T03:42:55.035Z,12.73
2019-01-02T03:45:34.532Z,13.17
2019-01-02T03:48:14.685Z,12.30
2019-01-02T03:50:54.704Z,12.60
2019-01-02T03:53:34.871Z,13.37
2019-01-02T03:56:14.874Z,11.87
2019-01-02T03:58:55.136Z,13.50
2019-01-02T04:01:35.144Z,12.40
2019-01-02T04:04:15.299Z,12.40
2019-01-02T04:06:55.270Z,12.00
2019-01-02T04:09:35.278Z,13.30
2019-01-02T04:12:15.327Z,13.70
2019-01-02T04:14:55.190Z,12.60
2019-01-02T04:17:35.435Z,11.33
2019-01-02T04:20:15.252Z,12.33
2019-01-02T04:22:55.429Z,12.83
2019-01-02T04:25:35.615Z,12.20
2019-01-02T04:28:15.897Z,12.93
2019-01-02T04:30:55.994Z,12.77
2019-01-02T04:33:36.175Z,13.60
2019-01-02T04:36:16.405Z,13.77
2019-01-02T04:38:56.337Z,12.97
2019-01-02T04:41:36.372Z,12.80
2019-01-02T04:44:16.282Z,12.47
2019-01-02T04:46:56.365Z,13.50
2019-01-02T04:49:36.574Z,14.20
2019-01-02T04:52:16.643Z,13.37
2019-01-02T04:54:56.681Z,13.27
2019-01-02T04:57:36.643Z,14.40
2019-01-02T05:00:16.449Z,12.70
2019-01-02T05:02:56.517Z,15.37
2019-01-02T05:05:36.379Z,15.50
2019-01-02T05:08:16.508Z,12.90
2019-01-02T05:10:56.595Z,12.90
2019-01-02T05:13:36.709Z,14.30
2019-01-02T05:16:16.889Z,14.50
2019-01-02T05:18:56.667Z,13.00
2019-01-02T05:21:36.565Z,12.83
2019-01-02T05:24:16.662Z,12.93
2019-01-02T05:26:56.474Z,13.27
2019-01-02T05:29:36.452Z,13.37
2019-01-02T05:32:16.655Z,14.47
2019-01-02T05:34:56.344Z,14.40
2019-01-02T05:37:22.785Z,13.43
2019-01-02T05:40:21.523Z,13.13
2019-01-02T05:43:07.760Z,12.60
2019-01-02T05:45:49.991Z,15.07
2019-01-02T05:48:30.256Z,13.33
2019-01-02T05:51:10.107Z,12.80
2019-01-02T05:53:47.467Z,14.30
2019-01-02T05:56:33.719Z,13.50
2019-01-02T05:59:13.223Z,15.10
2019-01-02T06:01:53.273Z,15.57
2019-01-02T06:04:33.409Z,14.33
2019-01-02T06:07:13.574Z,14.10
2019-01-02T06:09:53.543Z,14.63
2019-01-02T06:12:33.682Z,15.10
2019-01-02T06:15:13.714Z,13.43
2019-01-02T06:17:54.925Z,15.00
2019-01-02T06:20:35.074Z,15.30
2019-01-02T06:23:14.865Z,14.93
2019-01-02T06:25:54.996Z,15.40
2019-01-02T06:28:34.262Z,14.00
2019-01-02T06:31:14.406Z,14.03
2019-01-02T06:33:54.413Z,15.03
2019-01-02T06:36:34.444Z,12.10
2019-01-02T06:39:14.805Z,13.80
2019-01-02T06:41:54.737Z,12.97
2019-01-02T06:44:34.067Z,11.57
2019-01-02T06:47:13.990Z,12.80
2019-01-02T06:49:54.047Z,12.67
2019-01-02T06:52:34.103Z,12.50
2019-01-02T06:55:14.222Z,13.30
2019-01-02T06:57:54.557Z,13.97
2019-01-02T07:00:34.326Z,12.33
2019-01-02T07:03:14.212Z,14.10
2019-01-02T07:05:54.542Z,14.03
2019-01-02T07:08:34.429Z,13.50
2019-01-02T07:11:15.769Z,13.30
2019-01-02T07:13:55.887Z,11.50
2019-01-02T07:16:35.975Z,12.53
2019-01-02T07:19:16.101Z,12.07
2019-01-02T07:21:56.177Z,14.23
2019-01-02T07:24:36.111Z,12.90
2019-01-02T07:27:16.106Z,11.70
2019-01-02T07:29:56.311Z,11.37
2019-01-02T07:32:36.285Z,11.00
2019-01-02T07:35:16.198Z,12.43
2019-01-02T07:37:56.200Z,11.33
2019-01-02T07:40:36.282Z,11.27
2019-01-02T07:43:16.238Z,10.80
2019-01-02T07:45:56.055Z,11.00
2019-01-02T07:48:36.125Z,9.80
2019-01-02T07:51:16.169Z,10.80
2019-01-02T07:53:56.292Z,12.37
2019-01-02T07:56:36.235Z,10.90
2019-01-02T07:59:16.376Z,10.40
2019-01-02T08:01:56.494Z,10.37
2019-01-02T08:04:36.582Z,10.40
2019-01-02T08:07:16.223Z,9.40
2019-01-02T08:09:55.646Z,9.43
2019-01-02T08:12:35.553Z,9.80
2019-01-02T08:15:15.852Z,10.43
2019-01-02T08:17:56.805Z,9.63
2019-01-02T08:20:36.660Z,11.10
2019-01-02T08:23:16.785Z,9.97
2019-01-02T08:25:56.978Z,10.47
2019-01-02T08:28:36.321Z,9.30
2019-01-02T08:31:15.724Z,9.80
2019-01-02T08:33:56.128Z,9.40
2019-01-02T08:36:36.222Z,10.47
2019-01-02T08:39:16.297Z,9.47
2019-01-02T08:41:56.671Z,10.00
2019-01-02T08:44:36.565Z,9.50
2019-01-02T08:47:16.652Z,10.27
2019-01-02T08:49:56.769Z,9.70
2019-01-02T08:52:36.322Z,9.07
2019-01-02T08:55:16.317Z,9.53
2019-01-02T08:57:57.292Z,9.13
2019-01-02T09:00:36.752Z,9.20
2019-01-02T09:03:16.872Z,9.00
2019-01-02T09:05:57.285Z,10.60
2019-01-02T09:08:37.111Z,9.77
2019-01-02T09:11:17.170Z,8.47
2019-01-02T09:13:57.476Z,8.20
2019-01-02T09:16:37.323Z,9.53
2019-01-02T09:19:17.362Z,7.97
2019-01-02T09:21:56.659Z,8.53
2019-01-02T09:24:36.837Z,8.37
2019-01-02T09:27:16.782Z,9.47
2019-01-02T09:29:56.936Z,9.73
2019-01-02T09:32:37.045Z,9.80
2019-01-02T09:35:17.282Z,9.07
2019-01-02T09:37:57.104Z,8.07
2019-01-02T09:40:37.212Z,9.20
2019-01-02T09:43:17.341Z,8.80
2019-01-02T09:45:57.465Z,8.53
2019-01-02T09:48:37.432Z,8.80
2019-01-02T09:51:17.545Z,9.27
2019-01-02T09:53:57.533Z,7.70
2019-01-02T09:56:37.727Z,8.67
2019-01-02T09:59:17.701Z,10.10
2019-01-02T10:01:57.602Z,8.67
2019-01-02T10:04:37.882Z,8.20
2019-01-02T10:07:17.869Z,8.30
2019-01-02T10:09:57.657Z,8.20
2019-01-02T10:12:38.133Z,8.73
2019-01-02T10:15:17.961Z,7.83
2019-01-02T10:17:58.083Z,7.90
2019-01-02T10:20:43.710Z,9.27
2019-01-02T10:23:19.379Z,8.23
2019-01-02T10:25:59.714Z,8.23
2019-01-02T10:28:39.765Z,9.53
2019-01-02T10:31:19.720Z,8.83
2019-01-02T10:33:59.730Z,9.07
2019-01-02T10:36:39.787Z,8.50
2019-01-02T10:39:19.940Z,8.57
2019-01-02T10:41:59.913Z,7.60
2019-01-02T10:44:39.974Z,8.53
2019-01-02T10:47:19.947Z,8.37
2019-01-02T10:49:59.837Z,7.73
2019-01-02T10:52:40.030Z,8.07
2019-01-02T10:55:20.009Z,7.93
2019-01-02T10:57:59.915Z,8.30
2019-01-02T11:00:41.197Z,8.20
2019-01-02T11:03:21.099Z,8.43
2019-01-02T11:06:00.944Z,8.50
2019-01-02T11:08:40.949Z,8.63
2019-01-02T11:11:21.160Z,7.80
2019-01-02T11:14:01.311Z,7.70
2019-01-02T11:16:41.485Z,7.77
2019-01-02T11:19:21.484Z,8.20
2019-01-02T11:22:01.540Z,7.80
2019-01-02T11:24:41.678Z,9.90
2019-01-02T11:27:21.898Z,8.20
2019-01-02T11:30:01.853Z,8.23
2019-01-02T11:32:41.257Z,8.20
2019-01-02T11:35:21.312Z,8.27
2019-01-02T11:38:01.306Z,8.33
2019-01-02T11:40:41.348Z,7.93
2019-01-02T11:43:21.555Z,8.20
2019-01-02T11:46:01.363Z,7.83
2019-01-02T11:48:41.399Z,9.20
2019-01-02T11:51:21.635Z,8.17
2019-01-02T11:54:01.602Z,8.73
2019-01-02T11:56:41.400Z,8.50
2019-01-02T11:59:18.935Z,8.30
2019-01-02T12:02:05.191Z,8.40
2019-01-02T12:04:44.854Z,8.07
2019-01-02T12:07:24.899Z,9.00
2019-01-02T12:10:04.819Z,8.40
2019-01-02T12:12:44.945Z,7.80
2019-01-02T12:15:25.302Z,8.00
2019-01-02T12:18:05.208Z,8.40
2019-01-02T12:20:45.410Z,8.07
2019-01-02T12:23:25.384Z,8.47
2019-01-02T12:26:05.477Z,8.47
2019-01-02T12:28:45.562Z,8.03
2019-01-02T12:31:25.680Z,8.70
2019-01-02T12:34:05.533Z,7.70
2019-01-02T12:36:45.779Z,8.10
2019-01-02T12:39:25.597Z,7.93
2019-01-02T12:42:05.885Z,7.83
2019-01-02T12:44:45.883Z,7.43
2019-01-02T12:47:25.543Z,7.73
2019-01-02T12:50:05.669Z,8.53
2019-01-02T12:52:45.472Z,7.10
2019-01-02T12:55:25.338Z,7.90
2019-01-02T12:58:05.428Z,8.00
2019-01-02T13:00:45.801Z,8.67
2019-01-02T13:03:25.659Z,8.10
2019-01-02T13:06:05.643Z,8.10
2019-01-02T13:08:45.798Z,8.47
2019-01-02T13:11:25.775Z,8.13
2019-01-02T13:14:06.005Z,7.53
2019-01-02T13:16:46.098Z,7.57
2019-01-02T13:19:25.945Z,8.03
2019-01-02T13:22:05.924Z,7.67
2019-01-02T13:24:46.232Z,7.43
2019-01-02T13:27:25.962Z,8.27
2019-01-02T13:30:06.048Z,8.97
2019-01-02T13:32:46.163Z,8.67
2019-01-02T13:35:26.245Z,8.53
2019-01-02T13:38:06.360Z,8.30
2019-01-02T13:40:46.498Z,8.07
2019-01-02T13:43:26.541Z,7.63
2019-01-02T13:46:06.696Z,8.37
2019-01-02T13:48:46.591Z,7.80
2019-01-02T13:51:26.649Z,9.17
2019-01-02T13:54:06.585Z,7.77
2019-01-02T13:56:46.777Z,9.03
2019-01-02T13:59:26.694Z,8.17
2019-01-02T14:02:06.664Z,8.00
2019-01-02T14:04:46.618Z,8.10
2019-01-02T14:07:26.787Z,8.53
2019-01-02T14:10:06.817Z,8.63
2019-01-02T14:12:46.846Z,7.67
2019-01-02T14:15:26.686Z,8.43
2019-01-02T14:18:05.957Z,7.67
2019-01-02T14:20:45.968Z,8.50
2019-01-02T14:23:27.445Z,7.93
2019-01-02T14:26:07.247Z,9.00
2019-01-02T14:28:47.341Z,8.50
2019-01-02T14:31:27.402Z,9.60
2019-01-02T14:34:07.387Z,9.73
2019-01-02T14:36:46.731Z,8.10
2019-01-02T14:39:26.773Z,8.57
2019-01-02T14:42:06.933Z,8.07
2019-01-02T14:44:47.193Z,8.10
2019-01-02T14:47:26.975Z,8.53
2019-01-02T14:50:06.900Z,8.50
2019-01-02T14:52:50.382Z,8.80
2019-01-02T14:55:30.216Z,8.50
2019-01-02T14:58:10.215Z,8.70
2019-01-02T15:00:50.596Z,8.00
2019-01-02T15:03:30.407Z,8.87
2019-01-02T15:06:10.578Z,7.97
2019-01-02T15:08:50.623Z,7.93
2019-01-02T15:11:30.863Z,8.70
2019-01-02T15:14:10.914Z,8.80
2019-01-02T15:16:51.238Z,8.10
2019-01-02T15:19:30.964Z,9.10
2019-01-02T15:22:11.033Z,8.77
2019-01-02T15:24:50.440Z,8.50
2019-01-02T15:27:30.826Z,8.40
2019-01-02T15:30:11.654Z,9.10
2019-01-02T15:32:51.988Z,9.00
2019-01-02T15:35:31.969Z,9.20
2019-01-02T15:38:11.239Z,9.30
2019-01-02T15:40:51.204Z,8.00
2019-01-02T15:43:30.707Z,7.87
2019-01-02T15:46:11.359Z,9.10
2019-01-02T15:48:51.378Z,8.20
2019-01-02T15:51:31.508Z,8.20
2019-01-02T15:54:12.492Z,8.50
2019-01-02T15:56:52.421Z,8.23
2019-01-02T15:59:32.348Z,10.03
2019-01-02T16:02:12.373Z,8.10
2019-01-02T16:04:52.479Z,8.97
2019-01-02T16:07:32.549Z,9.70
2019-01-02T16:10:12.710Z,8.63
2019-01-02T16:12:52.016Z,8.30
2019-01-02T16:15:32.227Z,8.37
2019-01-02T16:18:12.065Z,8.43
2019-01-02T16:20:52.463Z,8.77
2019-01-02T16:23:32.247Z,8.20
2019-01-02T16:26:11.585Z,8.00
2019-01-02T16:28:51.452Z,8.77
2019-01-02T16:31:31.645Z,9.07
2019-01-02T16:34:11.696Z,9.00
2019-01-02T16:36:51.584Z,8.53
2019-01-02T16:39:31.466Z,8.73
2019-01-02T16:42:11.699Z,8.83
2019-01-02T16:44:51.969Z,8.07
2019-01-02T16:47:32.106Z,8.60
2019-01-02T16:50:12.044Z,8.30
2019-01-02T16:52:51.692Z,8.17
2019-01-02T16:55:31.828Z,8.43
2019-01-02T16:58:12.052Z,10.63
2019-01-02T17:00:52.247Z,8.87
2019-01-02T17:03:31.599Z,9.30
2019-01-02T17:06:11.639Z,9.60
2019-01-02T17:08:51.091Z,8.80
2019-01-02T17:11:31.184Z,9.03
2019-01-02T17:14:11.378Z,9.33
2019-01-02T17:16:51.463Z,7.77
2019-01-02T17:19:31.735Z,9.17
2019-01-02T17:22:11.595Z,8.80
2019-01-02T17:24:51.776Z,8.07
2019-01-02T17:27:32.149Z,8.77
2019-01-02T17:30:11.989Z,8.67
2019-01-02T17:32:51.965Z,8.13
2019-01-02T17:35:32.110Z,8.27
2019-01-02T17:38:12.123Z,10.20
2019-01-02T17:40:52.109Z,8.40
2019-01-02T17:43:32.078Z,8.20
2019-01-02T17:46:09.518Z,8.07
2019-01-02T17:48:55.762Z,9.00
2019-01-02T17:51:35.599Z,8.50
2019-01-02T17:54:15.551Z,9.13
2019-01-02T17:56:56.658Z,8.67
2019-01-02T17:59:36.573Z,9.10
2019-01-02T18:02:16.757Z,9.57
2019-01-02T18:04:56.679Z,8.63
2019-01-02T18:07:36.664Z,8.33
2019-01-02T18:10:16.598Z,9.33
2019-01-02T18:12:56.757Z,8.57
2019-01-02T18:15:37.376Z,10.47
2019-01-02T18:18:17.026Z,8.60
2019-01-02T18:20:57.124Z,8.87
2019-01-02T18:23:36.570Z,9.13
2019-01-02T18:26:16.384Z,9.83
2019-01-02T18:28:55.684Z,9.97
2019-01-02T18:31:37.279Z,9.50
2019-01-02T18:34:16.929Z,9.57
2019-01-02T18:36:57.037Z,9.50
2019-01-02T18:39:37.423Z,9.60
2019-01-02T18:42:17.357Z,10.07
2019-01-02T18:44:57.562Z,9.63
2019-01-02T18:47:36.881Z,9.23
2019-01-02T18:50:17.199Z,9.20
2019-01-02T18:52:57.262Z,9.70
2019-01-02T18:55:37.325Z,8.97
2019-01-02T18:58:17.399Z,9.30
2019-01-02T19:00:57.460Z,9.90
2019-01-02T19:03:37.504Z,9.40
2019-01-02T19:06:18.003Z,9.00
2019-01-02T19:09:01.083Z,13.10
2019-01-02T19:11:41.362Z,8.70
2019-01-02T19:14:21.644Z,9.13
2019-01-02T19:17:01.426Z,8.90
2019-01-02T19:19:41.279Z,8.87
2019-01-02T19:22:20.832Z,9.43
2019-01-02T19:25:00.734Z,8.43
2019-01-02T19:27:40.807Z,10.27
2019-01-02T19:30:18.313Z,9.17
2019-01-02T19:33:04.590Z,9.10
2019-01-02T19:35:44.036Z,10.08
2019-01-02T19:38:24.166Z,9.40
2019-01-02T19:41:03.632Z,8.50
2019-01-02T19:43:43.788Z,8.70
2019-01-02T19:46:21.138Z,8.40
2019-01-02T19:49:07.390Z,8.73
2019-01-02T19:51:46.836Z,9.60
2019-01-02T19:54:27.242Z,8.73
2019-01-02T19:57:07.038Z,8.80
2019-01-02T19:59:47.065Z,9.30
2019-01-02T20:02:27.143Z,8.67
2019-01-02T20:05:07.256Z,9.23
2019-01-02T20:07:47.322Z,8.93
2019-01-02T20:10:27.036Z,9.17
2019-01-02T20:13:07.032Z,9.30
2019-01-02T20:15:47.254Z,9.43
2019-01-02T20:18:27.317Z,10.17
2019-01-02T20:21:07.545Z,9.30
2019-01-02T20:23:47.097Z,9.67
2019-01-02T20:26:31.502Z,9.37
2019-01-02T20:29:09.090Z,10.47
2019-01-02T20:31:49.097Z,9.93
2019-01-02T20:34:29.351Z,9.53
2019-01-02T20:37:09.295Z,9.40
2019-01-02T20:39:49.499Z,9.63
2019-01-02T20:42:29.447Z,10.63
2019-01-02T20:45:09.651Z,11.50
2019-01-02T20:47:49.428Z,8.98
2019-01-02T20:50:29.612Z,8.47
2019-01-02T20:53:09.557Z,9.10
2019-01-02T20:55:49.380Z,9.70
2019-01-02T20:58:29.509Z,8.90
2019-01-02T21:01:09.973Z,9.20
2019-01-02T21:03:49.828Z,10.75
2019-01-02T21:06:29.848Z,9.80
2019-01-02T21:09:09.849Z,10.03
2019-01-02T21:11:49.432Z,9.68
2019-01-02T21:14:29.322Z,8.90
2019-01-02T21:17:09.337Z,9.37
2019-01-02T21:19:49.427Z,9.10
2019-01-02T21:22:29.171Z,8.93
2019-01-02T21:25:09.517Z,8.90
2019-01-02T21:27:49.237Z,9.80
2019-01-02T21:30:29.501Z,9.23
2019-01-02T21:33:09.567Z,10.67
2019-01-02T21:35:49.743Z,9.90
2019-01-02T21:38:29.876Z,9.70
2019-01-02T21:41:09.222Z,8.43
2019-01-02T21:43:49.026Z,9.70
2019-01-02T21:46:29.011Z,9.20
2019-01-02T21:49:09.011Z,9.20
2019-01-02T21:51:49.244Z,9.05
2019-01-02T21:54:29.029Z,9.33
2019-01-02T21:57:09.307Z,9.20
2019-01-02T21:59:50.249Z,9.47
2019-01-02T22:02:29.764Z,9.43
2019-01-02T22:05:09.873Z,9.75
2019-01-02T22:07:49.930Z,9.03
2019-01-02T22:10:29.946Z,9.58
2019-01-02T22:13:10.197Z,9.10
2019-01-02T22:15:50.216Z,10.18
2019-01-02T22:18:30.409Z,9.00
2019-01-02T22:21:10.370Z,9.70
2019-01-02T22:23:50.380Z,9.83
2019-01-02T22:26:30.306Z,10.25
2019-01-02T22:29:10.390Z,10.80
2019-01-02T22:31:50.422Z,9.90
2019-01-02T22:34:30.407Z,9.93
2019-01-02T22:37:10.575Z,9.05
2019-01-02T22:39:50.541Z,10.78
2019-01-02T22:42:30.750Z,9.67
2019-01-02T22:45:13.140Z,9.70
2019-01-02T22:47:52.552Z,9.05
2019-01-02T22:50:32.643Z,9.10
2019-01-02T22:53:12.804Z,9.98
2019-01-02T22:55:52.871Z,9.38
2019-01-02T22:58:32.832Z,10.30
2019-01-02T23:01:14.804Z,9.38
2019-01-02T23:03:56.884Z,8.98
2019-01-02T23:06:56.841Z,9.05
2019-01-02T23:09:41.135Z,9.83
2019-01-02T23:12:41.175Z,10.10
2019-01-02T23:15:22.489Z,9.20
2019-01-02T23:18:22.468Z,9.67
2019-01-02T23:21:22.520Z,9.70
2019-01-02T23:27:17.179Z,10.23
2019-01-02T23:30:02.306Z,9.60
2019-01-02T23:33:02.003Z,10.20
2019-01-02T23:36:02.524Z,10.97
2019-01-02T23:39:01.751Z,10.00
2019-01-02T23:42:02.883Z,9.65
2019-01-02T23:51:08.275Z,9.73
